sensor_id;sensor_type;location;lat;lon;timestamp;P1;durP1;ratioP1;P2;durP2;ratioP2
239;SDS011;104;53.590;10.004;2024-03-23T00:55:36;55.47;;;29.10;;
239;SDS011;104;53.590;10.004;2024-03-23T00:58:04;63.53;;;28.30;;
239;SDS011;104;53.590;10.004;2024-03-23T01:00:30;49.47;;;28.37;;
239;SDS011;104;53.590;10.004;2024-03-23T01:03:00;49.90;;;28.30;;
239;SDS011;104;53.590;10.004;2024-03-23T01:05:46;59.43;;;29.23;;
239;SDS011;104;53.590;10.004;2024-03-23T01:08:13;53.40;;;27.60;;
239;SDS011;104;53.590;10.004;2024-03-23T01:10:50;54.20;;;29.30;;
239;SDS011;104;53.590;10.004;2024-03-23T01:13:22;54.23;;;30.07;;
239;SDS011;104;53.590;10.004;2024-03-23T01:15:52;58.27;;;31.30;;
239;SDS011;104;53.590;10.004;2024-03-23T01:18:20;62.83;;;31.50;;
239;SDS011;104;53.590;10.004;2024-03-23T01:20:47;54.10;;;28.97;;
239;SDS011;104;53.590;10.004;2024-03-23T01:23:15;60.07;;;31.60;;
239;SDS011;104;53.590;10.004;2024-03-23T01:25:45;56.67;;;31.63;;
239;SDS011;104;53.590;10.004;2024-03-23T01:28:18;86.20;;;40.37;;
239;SDS011;104;53.590;10.004;2024-03-23T01:30:45;61.83;;;32.57;;
239;SDS011;104;53.590;10.004;2024-03-23T01:33:12;63.27;;;32.10;;
239;SDS011;104;53.590;10.004;2024-03-23T01:35:38;57.57;;;30.87;;
239;SDS011;104;53.590;10.004;2024-03-23T01:38:06;67.43;;;30.20;;
239;SDS011;104;53.590;10.004;2024-03-23T01:40:33;59.30;;;30.60;;
239;SDS011;104;53.590;10.004;2024-03-23T01:43:03;59.37;;;30.10;;
239;SDS011;104;53.590;10.004;2024-03-23T01:45:30;58.30;;;30.33;;
239;SDS011;104;53.590;10.004;2024-03-23T01:47:58;55.47;;;29.70;;
239;SDS011;104;53.590;10.004;2024-03-23T01:50:24;64.60;;;31.50;;
239;SDS011;104;53.590;10.004;2024-03-23T01:52:52;61.77;;;31.80;;
239;SDS011;104;53.590;10.004;2024-03-23T01:55:19;65.87;;;33.60;;
239;SDS011;104;53.590;10.004;2024-03-23T01:57:48;67.23;;;32.93;;
239;SDS011;104;53.590;10.004;2024-03-23T02:00:17;69.53;;;33.60;;
239;SDS011;104;53.590;10.004;2024-03-23T02:02:45;69.67;;;34.63;;
239;SDS011;104;53.590;10.004;2024-03-23T02:05:12;67.47;;;34.77;;
239;SDS011;104;53.590;10.004;2024-03-23T02:07:41;65.53;;;33.40;;
239;SDS011;104;53.590;10.004;2024-03-23T02:10:13;65.00;;;33.30;;
239;SDS011;104;53.590;10.004;2024-03-23T02:12:44;65.90;;;33.00;;
239;SDS011;104;53.590;10.004;2024-03-23T02:15:18;68.03;;;34.70;;
239;SDS011;104;53.590;10.004;2024-03-23T02:17:51;71.07;;;35.50;;
239;SDS011;104;53.590;10.004;2024-03-23T02:24:11;68.63;;;34.90;;
239;SDS011;104;53.590;10.004;2024-03-23T02:26:51;90.50;;;37.33;;
239;SDS011;104;53.590;10.004;2024-03-23T02:29:20;66.83;;;34.10;;
239;SDS011;104;53.590;10.004;2024-03-23T02:32:18;69.33;;;34.60;;
239;SDS011;104;53.590;10.004;2024-03-23T02:35:06;74.67;;;34.40;;
239;SDS011;104;53.590;10.004;2024-03-23T02:37:53;68.30;;;35.40;;
239;SDS011;104;53.590;10.004;2024-03-23T02:40:27;66.30;;;33.73;;
239;SDS011;104;53.590;10.004;2024-03-23T02:43:32;71.50;;;34.97;;
239;SDS011;104;53.590;10.004;2024-03-23T02:46:11;68.83;;;33.87;;
239;SDS011;104;53.590;10.004;2024-03-23T02:48:46;87.40;;;41.10;;
239;SDS011;104;53.590;10.004;2024-03-23T02:51:32;87.53;;;43.83;;
239;SDS011;104;53.590;10.004;2024-03-23T02:54:07;73.23;;;37.07;;
239;SDS011;104;53.590;10.004;2024-03-23T03:16:22;90.03;;;43.37;;
239;SDS011;104;53.590;10.004;2024-03-23T03:24:49;68.43;;;35.37;;
239;SDS011;104;53.590;10.004;2024-03-23T03:25:03;161.10;;;45.53;;
239;SDS011;104;53.590;10.004;2024-03-23T03:28:04;104.20;;;36.30;;
239;SDS011;104;53.590;10.004;2024-03-23T03:30:31;61.27;;;30.73;;
239;SDS011;104;53.590;10.004;2024-03-23T03:33:00;61.80;;;31.90;;
239;SDS011;104;53.590;10.004;2024-03-23T03:35:27;57.23;;;31.30;;
239;SDS011;104;53.590;10.004;2024-03-23T03:37:55;65.37;;;32.07;;
239;SDS011;104;53.590;10.004;2024-03-23T03:40:22;54.90;;;29.40;;
239;SDS011;104;53.590;10.004;2024-03-23T03:42:49;62.40;;;30.27;;
239;SDS011;104;53.590;10.004;2024-03-23T03:45:17;63.63;;;29.77;;
239;SDS011;104;53.590;10.004;2024-03-23T03:47:43;61.10;;;31.33;;
239;SDS011;104;53.590;10.004;2024-03-23T03:50:15;58.97;;;29.87;;
239;SDS011;104;53.590;10.004;2024-03-23T03:52:41;57.10;;;29.90;;
239;SDS011;104;53.590;10.004;2024-03-23T03:55:12;62.90;;;31.60;;
239;SDS011;104;53.590;10.004;2024-03-23T03:57:38;61.80;;;29.80;;
239;SDS011;104;53.590;10.004;2024-03-23T04:00:06;53.23;;;28.30;;
239;SDS011;104;53.590;10.004;2024-03-23T04:02:36;53.27;;;28.07;;
239;SDS011;104;53.590;10.004;2024-03-23T04:05:04;65.17;;;32.30;;
239;SDS011;104;53.590;10.004;2024-03-23T04:10:29;51.60;;;28.40;;
239;SDS011;104;53.590;10.004;2024-03-23T04:16:08;61.53;;;27.50;;
239;SDS011;104;53.590;10.004;2024-03-23T04:18:43;52.13;;;27.30;;
239;SDS011;104;53.590;10.004;2024-03-23T04:21:21;49.00;;;25.80;;
239;SDS011;104;53.590;10.004;2024-03-23T04:24:01;52.60;;;26.20;;
239;SDS011;104;53.590;10.004;2024-03-23T04:29:17;53.40;;;27.83;;
239;SDS011;104;53.590;10.004;2024-03-23T04:31:44;51.90;;;26.63;;
239;SDS011;104;53.590;10.004;2024-03-23T04:34:10;48.80;;;25.70;;
239;SDS011;104;53.590;10.004;2024-03-23T04:36:38;57.87;;;27.57;;
239;SDS011;104;53.590;10.004;2024-03-23T04:39:05;52.20;;;27.60;;
239;SDS011;104;53.590;10.004;2024-03-23T04:41:34;56.00;;;28.60;;
239;SDS011;104;53.590;10.004;2024-03-23T04:44:01;52.33;;;27.57;;
239;SDS011;104;53.590;10.004;2024-03-23T04:46:30;52.47;;;26.90;;
239;SDS011;104;53.590;10.004;2024-03-23T04:48:58;57.27;;;30.60;;
239;SDS011;104;53.590;10.004;2024-03-23T04:51:25;50.43;;;26.27;;
239;SDS011;104;53.590;10.004;2024-03-23T04:53:53;48.70;;;25.40;;
239;SDS011;104;53.590;10.004;2024-03-23T04:56:20;48.27;;;26.57;;
239;SDS011;104;53.590;10.004;2024-03-23T04:58:47;55.60;;;26.93;;
239;SDS011;104;53.590;10.004;2024-03-23T05:01:14;49.40;;;27.20;;
239;SDS011;104;53.590;10.004;2024-03-23T05:03:42;49.90;;;26.30;;
239;SDS011;104;53.590;10.004;2024-03-23T05:06:10;50.00;;;26.37;;
239;SDS011;104;53.590;10.004;2024-03-23T05:08:36;46.60;;;25.27;;
239;SDS011;104;53.590;10.004;2024-03-23T05:11:03;47.60;;;25.60;;
239;SDS011;104;53.590;10.004;2024-03-23T05:13:30;52.27;;;26.73;;
239;SDS011;104;53.590;10.004;2024-03-23T05:15:58;49.80;;;26.77;;
239;SDS011;104;53.590;10.004;2024-03-23T05:18:26;50.17;;;26.50;;
239;SDS011;104;53.590;10.004;2024-03-23T05:20:56;43.50;;;26.13;;
239;SDS011;104;53.590;10.004;2024-03-23T05:23:23;52.23;;;26.43;;
239;SDS011;104;53.590;10.004;2024-03-23T05:25:50;45.70;;;24.60;;
239;SDS011;104;53.590;10.004;2024-03-23T05:28:17;45.90;;;24.50;;
239;SDS011;104;53.590;10.004;2024-03-23T05:30:44;61.90;;;34.20;;
239;SDS011;104;53.590;10.004;2024-03-23T05:33:16;47.50;;;26.00;;
239;SDS011;104;53.590;10.004;2024-03-23T05:35:43;50.70;;;24.23;;
239;SDS011;104;53.590;10.004;2024-03-23T05:38:11;52.20;;;24.20;;
239;SDS011;104;53.590;10.004;2024-03-23T05:40:39;39.70;;;22.97;;
239;SDS011;104;53.590;10.004;2024-03-23T05:43:08;58.33;;;25.17;;
239;SDS011;104;53.590;10.004;2024-03-23T05:45:36;43.73;;;23.00;;
239;SDS011;104;53.590;10.004;2024-03-23T05:48:02;42.57;;;23.57;;
239;SDS011;104;53.590;10.004;2024-03-23T05:50:30;46.60;;;24.43;;
239;SDS011;104;53.590;10.004;2024-03-23T05:52:56;39.63;;;22.80;;
239;SDS011;104;53.590;10.004;2024-03-23T05:55:25;50.83;;;24.10;;
239;SDS011;104;53.590;10.004;2024-03-23T05:57:52;45.20;;;22.93;;
239;SDS011;104;53.590;10.004;2024-03-23T06:00:19;45.50;;;24.00;;
239;SDS011;104;53.590;10.004;2024-03-23T06:02:46;48.50;;;24.23;;
239;SDS011;104;53.590;10.004;2024-03-23T06:05:13;50.40;;;24.90;;
239;SDS011;104;53.590;10.004;2024-03-23T06:07:40;49.00;;;24.77;;
239;SDS011;104;53.590;10.004;2024-03-23T06:10:07;48.63;;;24.80;;
239;SDS011;104;53.590;10.004;2024-03-23T06:12:36;47.77;;;24.67;;
239;SDS011;104;53.590;10.004;2024-03-23T06:15:03;46.00;;;23.70;;
239;SDS011;104;53.590;10.004;2024-03-23T06:17:30;47.97;;;23.13;;
239;SDS011;104;53.590;10.004;2024-03-23T06:19:58;43.90;;;23.10;;
239;SDS011;104;53.590;10.004;2024-03-23T06:22:24;43.83;;;22.20;;
239;SDS011;104;53.590;10.004;2024-03-23T06:24:52;44.73;;;23.27;;
239;SDS011;104;53.590;10.004;2024-03-23T06:27:18;40.87;;;22.17;;
239;SDS011;104;53.590;10.004;2024-03-23T06:29:46;39.60;;;22.27;;
239;SDS011;104;53.590;10.004;2024-03-23T06:32:12;38.30;;;20.87;;
239;SDS011;104;53.590;10.004;2024-03-23T06:34:41;44.50;;;21.53;;
239;SDS011;104;53.590;10.004;2024-03-23T06:37:07;37.50;;;20.40;;
239;SDS011;104;53.590;10.004;2024-03-23T06:39:34;35.93;;;20.20;;
239;SDS011;104;53.590;10.004;2024-03-23T06:42:00;40.93;;;20.07;;
239;SDS011;104;53.590;10.004;2024-03-23T06:44:28;40.23;;;21.17;;
239;SDS011;104;53.590;10.004;2024-03-23T06:46:56;41.50;;;21.97;;
239;SDS011;104;53.590;10.004;2024-03-23T06:49:23;41.47;;;21.07;;
239;SDS011;104;53.590;10.004;2024-03-23T06:51:50;36.73;;;20.23;;
239;SDS011;104;53.590;10.004;2024-03-23T06:54:17;40.87;;;21.03;;
239;SDS011;104;53.590;10.004;2024-03-23T06:56:43;39.57;;;21.30;;
239;SDS011;104;53.590;10.004;2024-03-23T06:59:10;38.60;;;21.23;;
239;SDS011;104;53.590;10.004;2024-03-23T07:01:37;37.10;;;19.17;;
239;SDS011;104;53.590;10.004;2024-03-23T07:04:05;36.97;;;19.47;;
239;SDS011;104;53.590;10.004;2024-03-23T07:06:31;36.50;;;18.97;;
239;SDS011;104;53.590;10.004;2024-03-23T07:08:58;37.07;;;19.90;;
239;SDS011;104;53.590;10.004;2024-03-23T07:11:25;34.43;;;18.87;;
239;SDS011;104;53.590;10.004;2024-03-23T07:13:52;34.00;;;18.93;;
239;SDS011;104;53.590;10.004;2024-03-23T07:16:20;38.20;;;19.60;;
239;SDS011;104;53.590;10.004;2024-03-23T07:18:47;35.47;;;19.47;;
239;SDS011;104;53.590;10.004;2024-03-23T07:21:14;36.20;;;19.63;;
239;SDS011;104;53.590;10.004;2024-03-23T07:23:42;34.50;;;18.23;;
239;SDS011;104;53.590;10.004;2024-03-23T07:26:10;30.83;;;17.67;;
239;SDS011;104;53.590;10.004;2024-03-23T07:28:37;32.80;;;17.83;;
239;SDS011;104;53.590;10.004;2024-03-23T07:31:08;27.97;;;17.20;;
239;SDS011;104;53.590;10.004;2024-03-23T07:33:36;34.50;;;18.63;;
239;SDS011;104;53.590;10.004;2024-03-23T07:36:03;32.20;;;18.50;;
239;SDS011;104;53.590;10.004;2024-03-23T07:38:32;34.97;;;17.80;;
239;SDS011;104;53.590;10.004;2024-03-23T07:41:04;31.40;;;16.97;;
239;SDS011;104;53.590;10.004;2024-03-23T07:43:32;28.37;;;17.77;;
239;SDS011;104;53.590;10.004;2024-03-23T07:45:58;31.93;;;17.80;;
239;SDS011;104;53.590;10.004;2024-03-23T07:48:25;33.20;;;18.40;;
239;SDS011;104;53.590;10.004;2024-03-23T07:50:58;29.90;;;18.70;;
239;SDS011;104;53.590;10.004;2024-03-23T07:53:26;35.83;;;18.63;;
239;SDS011;104;53.590;10.004;2024-03-23T07:55:55;33.23;;;18.03;;
239;SDS011;104;53.590;10.004;2024-03-23T07:58:23;30.47;;;17.47;;
239;SDS011;104;53.590;10.004;2024-03-23T08:00:49;17.00;;;9.50;;
239;SDS011;104;53.590;10.004;2024-03-23T08:03:16;18.80;;;10.40;;
239;SDS011;104;53.590;10.004;2024-03-23T08:05:43;19.80;;;9.97;;
239;SDS011;104;53.590;10.004;2024-03-23T08:08:14;14.47;;;8.33;;
239;SDS011;104;53.590;10.004;2024-03-23T08:11:20;16.80;;;9.03;;
239;SDS011;104;53.590;10.004;2024-03-23T08:13:40;16.00;;;7.23;;
239;SDS011;104;53.590;10.004;2024-03-23T08:16:07;16.03;;;8.33;;
239;SDS011;104;53.590;10.004;2024-03-23T08:18:35;17.03;;;7.33;;
239;SDS011;104;53.590;10.004;2024-03-23T08:21:01;12.63;;;6.93;;
239;SDS011;104;53.590;10.004;2024-03-23T08:23:29;14.73;;;6.90;;
239;SDS011;104;53.590;10.004;2024-03-23T08:25:57;13.13;;;7.30;;
239;SDS011;104;53.590;10.004;2024-03-23T08:28:24;23.03;;;9.50;;
239;SDS011;104;53.590;10.004;2024-03-23T08:30:52;12.13;;;7.10;;
239;SDS011;104;53.590;10.004;2024-03-23T08:33:20;16.73;;;7.53;;
239;SDS011;104;53.590;10.004;2024-03-23T08:35:52;14.73;;;7.60;;
239;SDS011;104;53.590;10.004;2024-03-23T08:38:20;14.73;;;7.53;;
239;SDS011;104;53.590;10.004;2024-03-23T08:40:46;15.57;;;7.70;;
239;SDS011;104;53.590;10.004;2024-03-23T08:43:13;11.30;;;6.07;;
239;SDS011;104;53.590;10.004;2024-03-23T08:45:39;9.80;;;5.50;;
239;SDS011;104;53.590;10.004;2024-03-23T08:48:08;17.70;;;7.10;;
239;SDS011;104;53.590;10.004;2024-03-23T08:50:34;9.53;;;5.57;;
239;SDS011;104;53.590;10.004;2024-03-23T08:53:01;13.50;;;6.57;;
239;SDS011;104;53.590;10.004;2024-03-23T08:55:28;12.20;;;6.60;;
239;SDS011;104;53.590;10.004;2024-03-23T08:57:55;11.93;;;6.53;;
239;SDS011;104;53.590;10.004;2024-03-23T09:00:21;14.43;;;7.03;;
239;SDS011;104;53.590;10.004;2024-03-23T09:02:48;19.50;;;7.13;;
239;SDS011;104;53.590;10.004;2024-03-23T09:05:16;13.73;;;6.80;;
239;SDS011;104;53.590;10.004;2024-03-23T09:07:43;15.70;;;7.37;;
239;SDS011;104;53.590;10.004;2024-03-23T09:10:09;17.40;;;8.23;;
239;SDS011;104;53.590;10.004;2024-03-23T09:12:36;15.33;;;7.47;;
239;SDS011;104;53.590;10.004;2024-03-23T09:15:03;13.90;;;7.67;;
239;SDS011;104;53.590;10.004;2024-03-23T09:17:30;13.83;;;7.27;;
239;SDS011;104;53.590;10.004;2024-03-23T09:19:56;13.10;;;7.50;;
239;SDS011;104;53.590;10.004;2024-03-23T09:22:25;21.40;;;9.20;;
239;SDS011;104;53.590;10.004;2024-03-23T09:24:51;12.70;;;7.40;;
239;SDS011;104;53.590;10.004;2024-03-23T09:27:18;12.87;;;6.97;;
239;SDS011;104;53.590;10.004;2024-03-23T09:29:44;20.20;;;8.73;;
239;SDS011;104;53.590;10.004;2024-03-23T09:32:11;12.47;;;6.70;;
239;SDS011;104;53.590;10.004;2024-03-23T09:34:37;18.30;;;8.30;;
239;SDS011;104;53.590;10.004;2024-03-23T09:37:04;11.37;;;6.20;;
239;SDS011;104;53.590;10.004;2024-03-23T09:39:32;12.57;;;6.50;;
239;SDS011;104;53.590;10.004;2024-03-23T09:41:59;13.03;;;6.80;;
239;SDS011;104;53.590;10.004;2024-03-23T09:44:25;14.03;;;7.10;;
239;SDS011;104;53.590;10.004;2024-03-23T09:46:54;14.33;;;7.13;;
239;SDS011;104;53.590;10.004;2024-03-23T09:49:20;16.70;;;8.17;;
239;SDS011;104;53.590;10.004;2024-03-23T09:51:48;10.13;;;5.70;;
239;SDS011;104;53.590;10.004;2024-03-23T09:54:14;15.90;;;7.07;;
239;SDS011;104;53.590;10.004;2024-03-23T09:56:42;12.27;;;6.77;;
239;SDS011;104;53.590;10.004;2024-03-23T09:59:08;11.00;;;5.50;;
239;SDS011;104;53.590;10.004;2024-03-23T10:01:35;13.40;;;6.40;;
239;SDS011;104;53.590;10.004;2024-03-23T10:04:02;20.80;;;8.67;;
239;SDS011;104;53.590;10.004;2024-03-23T10:06:30;13.47;;;6.43;;
239;SDS011;104;53.590;10.004;2024-03-23T10:08:56;11.13;;;5.17;;
239;SDS011;104;53.590;10.004;2024-03-23T10:11:23;8.67;;;4.40;;
239;SDS011;104;53.590;10.004;2024-03-23T10:13:52;10.90;;;5.60;;
239;SDS011;104;53.590;10.004;2024-03-23T10:16:22;12.37;;;4.90;;
239;SDS011;104;53.590;10.004;2024-03-23T10:18:48;10.83;;;5.80;;
239;SDS011;104;53.590;10.004;2024-03-23T10:21:16;12.67;;;5.53;;
239;SDS011;104;53.590;10.004;2024-03-23T10:23:43;14.57;;;6.57;;
239;SDS011;104;53.590;10.004;2024-03-23T10:26:12;16.03;;;6.00;;
239;SDS011;104;53.590;10.004;2024-03-23T10:28:43;14.73;;;5.90;;
239;SDS011;104;53.590;10.004;2024-03-23T10:31:19;9.10;;;4.53;;
239;SDS011;104;53.590;10.004;2024-03-23T10:33:46;13.20;;;6.07;;
239;SDS011;104;53.590;10.004;2024-03-23T10:36:13;21.27;;;6.73;;
239;SDS011;104;53.590;10.004;2024-03-23T10:38:40;9.97;;;4.73;;
239;SDS011;104;53.590;10.004;2024-03-23T10:41:08;12.47;;;5.47;;
239;SDS011;104;53.590;10.004;2024-03-23T10:43:34;9.80;;;4.47;;
239;SDS011;104;53.590;10.004;2024-03-23T10:46:03;6.60;;;3.80;;
239;SDS011;104;53.590;10.004;2024-03-23T10:48:31;9.13;;;4.67;;
239;SDS011;104;53.590;10.004;2024-03-23T10:50:58;12.53;;;4.40;;
239;SDS011;104;53.590;10.004;2024-03-23T10:53:25;88.30;;;47.73;;
239;SDS011;104;53.590;10.004;2024-03-23T10:55:52;8.70;;;4.80;;
239;SDS011;104;53.590;10.004;2024-03-23T10:58:20;9.90;;;4.67;;
239;SDS011;104;53.590;10.004;2024-03-23T11:00:48;7.37;;;4.07;;
239;SDS011;104;53.590;10.004;2024-03-23T11:03:32;8.73;;;4.03;;
239;SDS011;104;53.590;10.004;2024-03-23T11:05:59;12.13;;;5.10;;
239;SDS011;104;53.590;10.004;2024-03-23T11:08:32;9.60;;;4.57;;
239;SDS011;104;53.590;10.004;2024-03-23T11:11:11;7.90;;;4.40;;
239;SDS011;104;53.590;10.004;2024-03-23T11:13:37;10.13;;;4.90;;
239;SDS011;104;53.590;10.004;2024-03-23T11:16:12;7.60;;;4.03;;
239;SDS011;104;53.590;10.004;2024-03-23T11:18:40;9.67;;;4.77;;
239;SDS011;104;53.590;10.004;2024-03-23T11:21:10;15.60;;;5.13;;
239;SDS011;104;53.590;10.004;2024-03-23T11:23:36;12.03;;;5.23;;
239;SDS011;104;53.590;10.004;2024-03-23T11:26:07;8.00;;;4.70;;
239;SDS011;104;53.590;10.004;2024-03-23T11:28:33;9.83;;;4.70;;
239;SDS011;104;53.590;10.004;2024-03-23T11:31:01;8.40;;;4.10;;
239;SDS011;104;53.590;10.004;2024-03-23T11:33:27;9.07;;;4.30;;
239;SDS011;104;53.590;10.004;2024-03-23T11:35:55;7.47;;;3.83;;
239;SDS011;104;53.590;10.004;2024-03-23T11:38:22;14.37;;;6.30;;
239;SDS011;104;53.590;10.004;2024-03-23T11:40:49;10.50;;;5.27;;
239;SDS011;104;53.590;10.004;2024-03-23T11:43:16;13.43;;;5.47;;
239;SDS011;104;53.590;10.004;2024-03-23T11:45:44;11.90;;;5.13;;
239;SDS011;104;53.590;10.004;2024-03-23T11:48:11;14.23;;;5.07;;
239;SDS011;104;53.590;10.004;2024-03-23T11:50:39;10.50;;;4.80;;
239;SDS011;104;53.590;10.004;2024-03-23T11:53:07;6.80;;;4.00;;
239;SDS011;104;53.590;10.004;2024-03-23T11:55:45;6.60;;;3.77;;
239;SDS011;104;53.590;10.004;2024-03-23T11:58:12;9.30;;;3.97;;
239;SDS011;104;53.590;10.004;2024-03-23T12:00:39;6.13;;;3.97;;
239;SDS011;104;53.590;10.004;2024-03-23T12:03:05;11.00;;;4.90;;
239;SDS011;104;53.590;10.004;2024-03-23T12:05:33;11.23;;;4.67;;
239;SDS011;104;53.590;10.004;2024-03-23T12:08:16;16.47;;;3.93;;
239;SDS011;104;53.590;10.004;2024-03-23T12:10:44;9.10;;;3.90;;
239;SDS011;104;53.590;10.004;2024-03-23T12:13:10;8.17;;;3.80;;
239;SDS011;104;53.590;10.004;2024-03-23T12:15:37;14.50;;;4.80;;
239;SDS011;104;53.590;10.004;2024-03-23T12:18:07;10.03;;;4.40;;
239;SDS011;104;53.590;10.004;2024-03-23T12:20:35;9.03;;;4.53;;
239;SDS011;104;53.590;10.004;2024-03-23T12:23:09;9.77;;;4.90;;
239;SDS011;104;53.590;10.004;2024-03-23T12:25:39;10.93;;;4.70;;
239;SDS011;104;53.590;10.004;2024-03-23T12:28:06;13.80;;;5.20;;
239;SDS011;104;53.590;10.004;2024-03-23T12:30:34;10.27;;;5.03;;
239;SDS011;104;53.590;10.004;2024-03-23T12:33:00;14.00;;;5.10;;
239;SDS011;104;53.590;10.004;2024-03-23T12:35:28;10.53;;;5.03;;
239;SDS011;104;53.590;10.004;2024-03-23T12:37:54;10.37;;;5.10;;
239;SDS011;104;53.590;10.004;2024-03-23T12:40:21;6.27;;;4.00;;
239;SDS011;104;53.590;10.004;2024-03-23T12:42:49;14.23;;;4.47;;
239;SDS011;104;53.590;10.004;2024-03-23T12:45:16;9.07;;;5.00;;
239;SDS011;104;53.590;10.004;2024-03-23T12:47:42;15.97;;;5.40;;
239;SDS011;104;53.590;10.004;2024-03-23T12:50:09;10.40;;;4.60;;
239;SDS011;104;53.590;10.004;2024-03-23T12:52:36;11.07;;;5.13;;
239;SDS011;104;53.590;10.004;2024-03-23T12:55:03;11.80;;;5.43;;
239;SDS011;104;53.590;10.004;2024-03-23T12:57:30;10.27;;;4.50;;
239;SDS011;104;53.590;10.004;2024-03-23T12:59:59;14.33;;;5.33;;
239;SDS011;104;53.590;10.004;2024-03-23T13:02:26;13.00;;;5.50;;
239;SDS011;104;53.590;10.004;2024-03-23T13:04:53;13.03;;;5.97;;
239;SDS011;104;53.590;10.004;2024-03-23T13:07:20;11.70;;;5.53;;
239;SDS011;104;53.590;10.004;2024-03-23T13:09:49;10.93;;;5.40;;
239;SDS011;104;53.590;10.004;2024-03-23T13:12:15;11.97;;;5.37;;
239;SDS011;104;53.590;10.004;2024-03-23T13:14:43;9.93;;;4.90;;
239;SDS011;104;53.590;10.004;2024-03-23T13:17:11;14.20;;;6.00;;
239;SDS011;104;53.590;10.004;2024-03-23T13:19:38;10.83;;;4.60;;
239;SDS011;104;53.590;10.004;2024-03-23T13:22:05;18.13;;;8.43;;
239;SDS011;104;53.590;10.004;2024-03-23T13:24:32;14.23;;;5.57;;
239;SDS011;104;53.590;10.004;2024-03-23T13:26:58;9.93;;;4.80;;
239;SDS011;104;53.590;10.004;2024-03-23T13:32:01;9.23;;;5.23;;
239;SDS011;104;53.590;10.004;2024-03-23T13:34:30;9.97;;;5.20;;
239;SDS011;104;53.590;10.004;2024-03-23T13:36:58;10.63;;;5.67;;
239;SDS011;104;53.590;10.004;2024-03-23T13:39:25;8.03;;;4.90;;
239;SDS011;104;53.590;10.004;2024-03-23T13:41:52;11.93;;;6.17;;
239;SDS011;104;53.590;10.004;2024-03-23T13:44:20;8.57;;;5.00;;
239;SDS011;104;53.590;10.004;2024-03-23T13:46:47;11.90;;;5.33;;
239;SDS011;104;53.590;10.004;2024-03-23T13:49:20;11.77;;;5.43;;
239;SDS011;104;53.590;10.004;2024-03-23T13:51:51;10.00;;;5.20;;
239;SDS011;104;53.590;10.004;2024-03-23T13:54:19;12.00;;;6.00;;
239;SDS011;104;53.590;10.004;2024-03-23T13:56:46;11.60;;;6.63;;
239;SDS011;104;53.590;10.004;2024-03-23T13:59:14;12.20;;;6.60;;
239;SDS011;104;53.590;10.004;2024-03-23T14:01:40;11.50;;;5.27;;
239;SDS011;104;53.590;10.004;2024-03-23T14:04:08;19.67;;;7.10;;
239;SDS011;104;53.590;10.004;2024-03-23T14:06:34;13.90;;;6.60;;
239;SDS011;104;53.590;10.004;2024-03-23T14:09:03;10.77;;;5.63;;
239;SDS011;104;53.590;10.004;2024-03-23T14:11:30;12.63;;;5.83;;
239;SDS011;104;53.590;10.004;2024-03-23T14:13:57;14.57;;;6.43;;
239;SDS011;104;53.590;10.004;2024-03-23T14:16:23;14.30;;;6.33;;
239;SDS011;104;53.590;10.004;2024-03-23T14:18:50;21.80;;;6.80;;
239;SDS011;104;53.590;10.004;2024-03-23T14:21:17;12.43;;;5.93;;
239;SDS011;104;53.590;10.004;2024-03-23T14:23:44;14.20;;;7.20;;
239;SDS011;104;53.590;10.004;2024-03-23T14:26:12;13.30;;;5.30;;
239;SDS011;104;53.590;10.004;2024-03-23T14:28:39;13.60;;;6.17;;
239;SDS011;104;53.590;10.004;2024-03-23T14:31:06;36.43;;;6.43;;
239;SDS011;104;53.590;10.004;2024-03-23T14:33:35;17.17;;;6.87;;
239;SDS011;104;53.590;10.004;2024-03-23T14:36:02;14.77;;;6.00;;
239;SDS011;104;53.590;10.004;2024-03-23T14:38:30;10.83;;;5.87;;
239;SDS011;104;53.590;10.004;2024-03-23T14:40:57;17.83;;;7.17;;
239;SDS011;104;53.590;10.004;2024-03-23T14:43:27;14.40;;;6.20;;
239;SDS011;104;53.590;10.004;2024-03-23T14:46:06;14.90;;;6.10;;
239;SDS011;104;53.590;10.004;2024-03-23T14:48:44;13.87;;;5.73;;
239;SDS011;104;53.590;10.004;2024-03-23T14:51:11;12.20;;;5.67;;
239;SDS011;104;53.590;10.004;2024-03-23T14:53:40;16.43;;;5.67;;
239;SDS011;104;53.590;10.004;2024-03-23T14:56:13;16.20;;;6.27;;
239;SDS011;104;53.590;10.004;2024-03-23T14:58:55;8.50;;;4.90;;
239;SDS011;104;53.590;10.004;2024-03-23T15:01:22;9.70;;;4.40;;
239;SDS011;104;53.590;10.004;2024-03-23T15:03:49;17.67;;;5.87;;
239;SDS011;104;53.590;10.004;2024-03-23T15:06:18;12.27;;;6.03;;
239;SDS011;104;53.590;10.004;2024-03-23T15:08:46;7.00;;;4.70;;
239;SDS011;104;53.590;10.004;2024-03-23T15:11:16;9.03;;;4.63;;
239;SDS011;104;53.590;10.004;2024-03-23T15:13:45;16.67;;;5.10;;
239;SDS011;104;53.590;10.004;2024-03-23T15:16:16;11.43;;;5.43;;
239;SDS011;104;53.590;10.004;2024-03-23T15:18:45;11.80;;;5.47;;
239;SDS011;104;53.590;10.004;2024-03-23T15:24:32;12.77;;;5.20;;
239;SDS011;104;53.590;10.004;2024-03-23T15:27:03;13.70;;;6.53;;
239;SDS011;104;53.590;10.004;2024-03-23T15:29:33;11.37;;;5.30;;
239;SDS011;104;53.590;10.004;2024-03-23T15:32:03;13.60;;;5.90;;
239;SDS011;104;53.590;10.004;2024-03-23T15:34:31;10.90;;;5.27;;
239;SDS011;104;53.590;10.004;2024-03-23T15:36:59;8.87;;;5.30;;
239;SDS011;104;53.590;10.004;2024-03-23T15:39:26;9.33;;;5.10;;
239;SDS011;104;53.590;10.004;2024-03-23T15:41:53;26.17;;;7.53;;
239;SDS011;104;53.590;10.004;2024-03-23T15:44:21;17.23;;;5.90;;
239;SDS011;104;53.590;10.004;2024-03-23T15:46:47;10.20;;;5.43;;
239;SDS011;104;53.590;10.004;2024-03-23T15:49:17;14.80;;;5.67;;
239;SDS011;104;53.590;10.004;2024-03-23T15:51:44;12.73;;;5.53;;
239;SDS011;104;53.590;10.004;2024-03-23T15:54:12;12.20;;;5.90;;
239;SDS011;104;53.590;10.004;2024-03-23T15:56:38;14.87;;;5.37;;
239;SDS011;104;53.590;10.004;2024-03-23T15:59:07;9.80;;;5.33;;
239;SDS011;104;53.590;10.004;2024-03-23T16:01:34;11.70;;;5.13;;
239;SDS011;104;53.590;10.004;2024-03-23T16:04:03;18.03;;;6.03;;
239;SDS011;104;53.590;10.004;2024-03-23T16:06:31;14.10;;;4.93;;
239;SDS011;104;53.590;10.004;2024-03-23T16:08:59;10.10;;;5.07;;
239;SDS011;104;53.590;10.004;2024-03-23T16:11:26;16.33;;;5.57;;
239;SDS011;104;53.590;10.004;2024-03-23T16:13:54;12.47;;;5.40;;
239;SDS011;104;53.590;10.004;2024-03-23T16:16:21;10.10;;;4.57;;
239;SDS011;104;53.590;10.004;2024-03-23T16:18:51;16.73;;;5.50;;
239;SDS011;104;53.590;10.004;2024-03-23T16:21:18;10.67;;;4.70;;
239;SDS011;104;53.590;10.004;2024-03-23T16:23:48;10.97;;;4.47;;
239;SDS011;104;53.590;10.004;2024-03-23T16:26:15;11.30;;;4.00;;
239;SDS011;104;53.590;10.004;2024-03-23T16:28:43;16.20;;;5.17;;
239;SDS011;104;53.590;10.004;2024-03-23T16:31:11;12.73;;;5.10;;
239;SDS011;104;53.590;10.004;2024-03-23T16:33:39;12.30;;;4.97;;
239;SDS011;104;53.590;10.004;2024-03-23T16:36:06;8.03;;;4.00;;
239;SDS011;104;53.590;10.004;2024-03-23T16:38:34;11.17;;;4.97;;
239;SDS011;104;53.590;10.004;2024-03-23T16:41:03;5.50;;;3.60;;
239;SDS011;104;53.590;10.004;2024-03-23T16:43:31;11.77;;;5.13;;
239;SDS011;104;53.590;10.004;2024-03-23T16:45:58;14.40;;;5.67;;
239;SDS011;104;53.590;10.004;2024-03-23T16:48:26;9.23;;;4.43;;
239;SDS011;104;53.590;10.004;2024-03-23T16:50:53;14.73;;;5.70;;
239;SDS011;104;53.590;10.004;2024-03-23T16:53:23;12.03;;;5.63;;
239;SDS011;104;53.590;10.004;2024-03-23T16:55:57;12.07;;;5.03;;